Time;durP1;ratioP1;P1;durP2;ratioP2;P2;SDS_P1;SDS_P2;PMS_P1;PMS_P2;Temp;Humidity;BMP_temperature;BMP_pressure;BME280_temperature;BME280_humidity;BME280_pressure;Samples;Min_cycle;Max_cycle;Signal;HPM_P1;HPM_P2
2022/08/29 00:02:08;;;;;;;54.75;31.77;;;;;;;22.07;47.08;99204.47;5030273;28;20049;-38
2022/08/29 00:04:34;;;;;;;55.95;31.00;;;;;;;22.19;47.11;99230.66;5028716;28;20037;-38
2022/08/29 00:07:00;;;;;;;50.00;31.88;;;;;;;22.17;47.16;99234.44;5029690;28;20087;-38
2022/08/29 00:09:26;;;;;;;54.35;32.05;;;;;;;22.13;47.15;99227.75;5029344;28;20048;-38
2022/08/29 00:11:51;;;;;;;50.55;30.48;;;;;;;22.09;47.19;99228.97;5035744;28;20052;-38
2022/08/29 00:14:17;;;;;;;49.85;30.90;;;;;;;22.06;47.37;99224.81;5034017;28;20124;-38
2022/08/29 00:16:43;;;;;;;49.65;31.45;;;;;;;22.00;47.55;99213.91;5018969;28;20041;-38
2022/08/29 00:19:09;;;;;;;53.03;31.85;;;;;;;21.97;47.75;99228.28;5039422;28;20071;-37
2022/08/29 00:21:34;;;;;;;60.65;32.00;;;;;;;21.88;47.79;99208.69;5012593;28;20049;-39
2022/08/29 00:24:00;;;;;;;58.08;32.17;;;;;;;21.92;47.62;99211.94;5025454;28;20045;-38
2022/08/29 00:26:26;;;;;;;56.78;31.70;;;;;;;21.88;47.68;99198.09;5029773;28;20413;-37
2022/08/29 00:28:52;;;;;;;48.42;29.85;;;;;;;21.82;48.00;99206.63;5029137;28;20527;-38
2022/08/29 00:31:17;;;;;;;49.70;31.63;;;;;;;21.74;48.21;99195.00;5027582;28;20517;-38
2022/08/29 00:33:43;;;;;;;53.80;31.58;;;;;;;21.72;48.08;99194.31;5027332;28;20509;-38
2022/08/29 00:36:09;;;;;;;50.35;30.85;;;;;;;21.68;48.41;99196.38;5054115;28;20045;-38
2022/08/29 00:38:35;;;;;;;55.67;31.90;;;;;;;21.50;48.72;99172.41;5045182;28;20041;-39
2022/08/29 00:41:01;;;;;;;51.03;31.58;;;;;;;21.63;48.85;99188.00;5051352;28;20135;-38
2022/08/29 00:43:30;;;;;;;53.45;29.85;;;;;;;21.46;48.90;99154.25;5036063;28;20128;-38
2022/08/29 00:46:11;;;;;;;53.55;31.63;;;;;;;21.59;48.84;99176.03;5035889;28;20073;-39
2022/08/29 00:48:37;;;;;;;51.38;30.58;;;;;;;21.50;49.05;99164.47;5027008;28;20065;-39
2022/08/29 00:51:07;;;;;;;52.17;32.55;;;;;;;21.53;49.18;99160.69;5035104;28;20052;-38
2022/08/29 00:53:38;;;;;;;53.40;30.48;;;;;;;21.55;49.12;99169.34;5028038;28;20465;-38
2022/08/29 00:56:06;;;;;;;54.30;32.30;;;;;;;21.42;49.17;99134.34;5043782;28;20040;-38
2022/08/29 00:58:41;;;;;;;53.35;32.50;;;;;;;21.58;49.17;99158.47;5040429;28;20079;-38
2022/08/29 01:01:07;;;;;;;51.08;31.63;;;;;;;21.61;48.98;99157.38;5034600;28;20135;-38
2022/08/29 01:03:34;;;;;;;51.35;31.42;;;;;;;21.62;49.04;99148.44;5040978;28;20095;-38
2022/08/29 01:06:01;;;;;;;51.80;31.65;;;;;;;21.64;48.83;99144.72;5043504;28;20075;-38
2022/08/29 01:08:27;;;;;;;56.25;30.50;;;;;;;21.65;48.64;99133.16;5026101;28;20041;-38
2022/08/29 01:13:40;;;;;;;52.35;31.58;;;;;;;21.63;48.71;99121.03;5034019;28;20116;-39
2022/08/29 01:16:07;;;;;;;60.58;33.78;;;;;;;21.62;48.60;99124.63;5013818;28;20144;-38
2022/08/29 01:18:34;;;;;;;56.72;33.03;;;;;;;21.32;48.68;99073.50;5015646;28;20584;-38
2022/08/29 01:21:18;;;;;;;55.42;33.25;;;;;;;21.30;48.62;99071.97;5048122;28;20041;-38
2022/08/29 01:24:14;;;;;;;57.55;33.08;;;;;;;21.56;48.74;99118.94;5042734;28;20395;-39
2022/08/29 01:26:45;;;;;;;48.88;30.75;;;;;;;21.56;48.57;99112.81;5042897;28;20061;-38
2022/08/29 01:29:12;;;;;;;51.13;30.95;;;;;;;21.56;48.49;99110.19;5038863;28;20514;-39
2022/08/29 01:31:44;;;;;;;49.67;31.33;;;;;;;21.57;48.32;99109.19;5034370;28;20052;-39
2022/08/29 01:34:10;;;;;;;49.53;30.85;;;;;;;21.59;48.28;99109.91;5033964;28;20453;-39
2022/08/29 01:36:49;;;;;;;40.42;27.35;;;;;;;21.58;48.07;99096.78;5044545;28;20056;-39
2022/08/29 01:39:16;;;;;;;46.92;29.45;;;;;;;21.56;47.82;99091.66;5053909;28;20048;-37
2022/08/29 01:41:42;;;;;;;42.17;25.77;;;;;;;21.46;47.96;99078.38;5051675;28;20037;-39
2022/08/29 01:44:15;;;;;;;42.88;26.27;;;;;;;21.49;48.07;99079.94;5048732;28;20412;-38
2022/08/29 01:46:40;;;;;;;44.20;26.65;;;;;;;21.46;48.11;99083.69;5052392;28;20052;-39
2022/08/29 01:49:08;;;;;;;44.80;25.33;;;;;;;21.43;48.13;99077.84;5050340;28;20090;-38
2022/08/29 01:51:36;;;;;;;35.50;23.45;;;;;;;21.37;48.05;99066.00;5044305;28;20045;-37
2022/08/29 01:54:01;;;;;;;43.33;27.38;;;;;;;21.37;48.19;99070.44;5037154;28;20034;-37
2022/08/29 01:56:30;;;;;;;55.47;35.30;;;;;;;21.36;48.09;99066.13;5032471;28;20045;-38
2022/08/29 01:59:00;;;;;;;37.40;23.40;;;;;;;21.34;48.22;99073.38;5045855;28;20052;-39
2022/08/29 02:01:30;;;;;;;38.40;23.38;;;;;;;21.30;48.25;99058.75;5030541;28;20045;-39
2022/08/29 02:03:57;;;;;;;37.47;23.08;;;;;;;21.16;48.30;99044.09;5012471;28;20041;-39
2022/08/29 02:06:24;;;;;;;36.45;23.67;;;;;;;21.25;48.32;99071.53;5034902;28;20036;-38
2022/08/29 02:08:50;;;;;;;36.03;21.25;;;;;;;21.24;48.25;99070.69;5051359;28;20040;-38
2022/08/29 02:11:16;;;;;;;33.42;22.25;;;;;;;20.91;48.31;99011.00;5040366;28;20045;-37
2022/08/29 02:13:46;;;;;;;31.67;20.75;;;;;;;21.09;48.55;99053.50;5046781;28;20086;-38
2022/08/29 02:16:12;;;;;;;36.22;20.90;;;;;;;21.20;48.47;99058.69;5023459;28;20068;-39
2022/08/29 02:18:41;;;;;;;32.13;21.13;;;;;;;21.18;48.74;99060.66;5004956;28;20523;-38
2022/08/29 02:21:08;;;;;;;31.95;19.70;;;;;;;21.02;48.48;99020.66;5035803;28;20409;-38
2022/08/29 02:23:35;;;;;;;38.20;20.75;;;;;;;21.14;48.69;99046.84;5034757;28;20510;-37
2022/08/29 02:26:01;;;;;;;31.38;19.98;;;;;;;21.10;48.85;99050.72;5031615;28;20072;-39
2022/08/29 02:28:27;;;;;;;33.63;19.40;;;;;;;21.08;48.83;99047.38;5031698;28;20090;-39
2022/08/29 02:30:53;;;;;;;32.08;20.20;;;;;;;21.06;48.95;99035.25;5030998;28;20051;-38
2022/08/29 02:33:19;;;;;;;30.45;19.52;;;;;;;21.06;49.20;99030.81;5031184;28;20034;-38
2022/08/29 02:35:47;;;;;;;31.08;19.33;;;;;;;21.02;48.90;99018.84;5029486;28;20041;-39
2022/08/29 02:38:13;;;;;;;34.03;20.27;;;;;;;21.12;48.96;99045.31;5031828;28;20611;-38
2022/08/29 02:40:41;;;;;;;28.23;19.00;;;;;;;21.14;48.83;99053.97;5029928;28;20513;-38
2022/08/29 02:43:07;;;;;;;30.40;18.25;;;;;;;21.18;48.69;99049.25;5031740;28;20045;-41
2022/08/29 02:45:36;;;;;;;33.00;19.05;;;;;;;21.00;48.95;99012.00;5043191;28;20043;-39
2022/08/29 02:48:02;;;;;;;29.95;18.27;;;;;;;21.21;48.87;99026.00;5050165;28;20041;-39
2022/08/29 02:50:29;;;;;;;30.13;17.92;;;;;;;20.93;48.84;98966.81;5029326;28;20505;-39
2022/08/29 02:52:55;;;;;;;35.22;18.20;;;;;;;21.31;48.77;99024.22;5046063;28;20508;-38
2022/08/29 02:55:22;;;;;;;35.53;18.90;;;;;;;21.39;48.84;99020.91;5036295;28;20402;-39
2022/08/29 02:57:48;;;;;;;27.83;16.88;;;;;;;21.16;48.52;98971.88;5040157;28;20034;-38
2022/08/29 03:00:17;;;;;;;28.65;17.17;;;;;;;21.47;48.47;99037.75;5044009;28;20433;-37
2022/08/29 03:02:44;;;;;;;24.15;15.60;;;;;;;21.48;48.40;99034.13;5030561;28;20041;-37
2022/08/29 03:05:11;;;;;;;29.05;16.77;;;;;;;21.49;48.41;99019.94;5029261;28;20038;-38
2022/08/29 03:07:36;;;;;;;24.60;15.23;;;;;;;21.48;48.36;99023.56;5033202;28;20041;-38
2022/08/29 03:10:06;;;;;;;26.92;14.73;;;;;;;21.50;48.18;99018.97;5030835;28;20445;-37
2022/08/29 03:12:33;;;;;;;23.58;14.52;;;;;;;21.56;48.22;99020.25;5047212;28;20052;-38
2022/08/29 03:14:59;;;;;;;24.00;14.50;;;;;;;21.64;48.05;99016.88;5051498;28;20041;-38
2022/08/29 03:17:25;;;;;;;20.92;13.90;;;;;;;21.71;47.92;99000.31;5031303;28;20048;-39
2022/08/29 03:19:51;;;;;;;24.70;13.98;;;;;;;21.74;47.87;99009.78;5039607;28;20045;-37
2022/08/29 03:22:17;;;;;;;24.50;13.27;;;;;;;21.82;47.74;98999.34;5051287;28;20079;-38
2022/08/29 03:24:43;;;;;;;20.35;12.98;;;;;;;21.88;47.38;99001.41;5048880;28;20041;-39
2022/08/29 03:27:08;;;;;;;28.25;12.95;;;;;;;21.93;47.20;98994.72;5031738;28;20613;-39
2022/08/29 03:29:34;;;;;;;22.98;12.75;;;;;;;21.98;47.05;99002.28;5044121;28;20048;-38
2022/08/29 03:32:00;;;;;;;21.98;13.68;;;;;;;22.02;47.04;98998.38;5013573;28;20045;-39
2022/08/29 03:34:27;;;;;;;28.00;13.68;;;;;;;22.02;46.98;98994.91;5030047;28;20037;-38
2022/08/29 03:36:53;;;;;;;31.05;13.18;;;;;;;22.11;46.74;99004.63;5029670;28;20083;-38
2022/08/29 03:39:19;;;;;;;26.88;12.95;;;;;;;22.13;46.74;98992.09;5029728;28;20051;-38
2022/08/29 03:41:45;;;;;;;23.30;12.98;;;;;;;22.05;46.72;98973.41;5028877;28;20045;-40
2022/08/29 03:44:11;;;;;;;20.48;12.23;;;;;;;22.03;46.74;98968.28;5028815;28;20049;-38
2022/08/29 03:46:38;;;;;;;22.08;12.10;;;;;;;22.19;46.54;98997.63;5029573;28;20052;-38
2022/08/29 03:49:07;;;;;;;19.52;11.18;;;;;;;22.09;46.45;98982.75;5044788;28;20044;-38
2022/08/29 03:51:34;;;;;;;20.67;11.25;;;;;;;22.22;46.57;99007.97;5029654;28;20049;-38
2022/08/29 03:54:00;;;;;;;19.98;11.23;;;;;;;22.22;46.51;99007.97;5033691;28;20505;-39
2022/08/29 03:56:26;;;;;;;22.02;11.77;;;;;;;22.20;46.46;99009.91;5030157;28;20075;-38
2022/08/29 03:58:52;;;;;;;18.15;11.07;;;;;;;22.22;46.55;98988.59;5030057;28;20126;-38
2022/08/29 04:01:21;;;;;;;23.23;11.43;;;;;;;22.21;46.47;98955.97;5029440;28;20056;-38
2022/08/29 04:03:46;;;;;;;23.55;10.93;;;;;;;22.09;46.61;98998.63;5032137;28;20132;-38
2022/08/29 04:06:12;;;;;;;18.02;10.93;;;;;;;22.04;46.43;99017.59;5030236;28;20152;-39
2022/08/29 04:08:38;;;;;;;17.55;10.48;;;;;;;22.02;46.58;99022.19;5029796;28;20041;-39
2022/08/29 04:11:10;;;;;;;19.08;10.55;;;;;;;22.12;46.67;99001.84;5038798;28;20071;-39
2022/08/29 04:13:36;;;;;;;19.05;10.40;;;;;;;22.07;46.38;98971.47;5048279;28;20045;-39
2022/08/29 04:16:10;;;;;;;23.35;10.57;;;;;;;22.33;46.24;98980.47;5033876;28;20049;-39
2022/08/29 04:18:36;;;;;;;21.88;10.43;;;;;;;22.43;46.01;98964.53;5042568;28;20056;-39
2022/08/29 04:21:03;;;;;;;16.10;9.60;;;;;;;22.49;45.87;98954.22;5029635;28;20036;-37
2022/08/29 04:23:29;;;;;;;15.32;9.82;;;;;;;22.55;45.79;98963.38;5034324;28;20099;-40
2022/08/29 04:25:55;;;;;;;20.08;11.13;;;;;;;22.54;45.89;98959.06;5041189;28;20048;-37
2022/08/29 04:28:22;;;;;;;21.67;10.80;;;;;;;22.55;45.83;98950.97;5033077;28;20068;-40
2022/08/29 04:30:50;;;;;;;22.60;11.95;;;;;;;22.55;46.17;98952.78;5034936;28;20073;-37
2022/08/29 04:33:16;;;;;;;21.17;11.57;;;;;;;22.52;45.80;98938.00;5011997;28;21561;-39
2022/08/29 04:35:42;;;;;;;21.67;11.68;;;;;;;22.50;45.80;98925.91;5032771;28;20045;-39
2022/08/29 04:38:07;;;;;;;17.35;11.55;;;;;;;22.48;45.91;98914.59;5028901;28;20080;-38
2022/08/29 04:40:33;;;;;;;19.70;11.07;;;;;;;22.50;45.88;98902.91;5033580;28;20575;-38
2022/08/29 04:42:59;;;;;;;16.45;11.10;;;;;;;22.55;45.83;98902.44;5034852;28;20082;-39
2022/08/29 04:45:25;;;;;;;23.38;11.65;;;;;;;22.60;45.73;98900.19;5037657;28;20049;-38
2022/08/29 04:47:51;;;;;;;21.73;11.18;;;;;;;22.67;45.43;98899.44;5029641;28;20420;-38
2022/08/29 04:50:20;;;;;;;28.42;12.38;;;;;;;22.85;45.23;98893.38;5038417;28;20102;-38
2022/08/29 04:52:47;;;;;;;20.45;12.10;;;;;;;23.01;45.00;98899.69;5048759;28;20040;-38
2022/08/29 04:55:14;;;;;;;21.20;12.00;;;;;;;23.04;44.76;98903.84;5048340;28;20060;-38
2022/08/29 04:57:40;;;;;;;21.30;11.05;;;;;;;22.91;44.65;98884.84;5034372;28;20477;-38
2022/08/29 05:00:12;;;;;;;23.33;11.98;;;;;;;23.09;44.66;98898.91;5012163;28;20452;-38
2022/08/29 05:02:40;;;;;;;20.83;11.70;;;;;;;23.18;44.62;98900.69;5029970;28;20033;-38
2022/08/29 05:05:07;;;;;;;17.38;11.80;;;;;;;23.29;44.36;98895.13;5028874;28;20052;-38
2022/08/29 05:07:33;;;;;;;23.52;12.35;;;;;;;23.24;44.08;98884.13;5011844;28;20077;-38
2022/08/29 05:10:01;;;;;;;23.60;12.15;;;;;;;23.39;43.93;98905.69;5028919;28;20045;-38
2022/08/29 05:12:29;;;;;;;23.17;12.27;;;;;;;23.42;43.92;98903.53;4996341;28;20115;-38
2022/08/29 05:14:56;;;;;;;30.55;12.75;;;;;;;23.45;43.67;98900.59;5033747;28;20141;-38
2022/08/29 05:17:22;;;;;;;20.88;11.95;;;;;;;23.51;43.70;98891.19;5028304;28;20045;-38
2022/08/29 05:19:48;;;;;;;94.25;17.52;;;;;;;23.63;43.59;98892.63;5042619;28;20577;-38
2022/08/29 05:22:15;;;;;;;28.02;12.77;;;;;;;23.75;43.40;98907.34;5038885;28;20476;-41
2022/08/29 05:24:41;;;;;;;22.20;12.82;;;;;;;23.78;43.46;98920.28;5040946;28;20060;-39
2022/08/29 05:27:17;;;;;;;23.17;14.27;;;;;;;23.53;43.34;98895.38;5052048;28;20107;-39
2022/08/29 05:29:45;;;;;;;31.52;14.55;;;;;;;23.71;43.38;98889.22;5012825;28;20093;-39
2022/08/29 05:32:13;;;;;;;22.35;12.40;;;;;;;23.88;43.56;98914.88;5048763;28;20041;-38
2022/08/29 05:34:40;;;;;;;26.95;13.40;;;;;;;23.87;43.64;98915.84;5031243;28;20083;-38
2022/08/29 05:37:09;;;;;;;25.17;13.27;;;;;;;23.95;43.43;98892.88;5045624;28;20299;-38
2022/08/29 05:39:36;;;;;;;20.67;13.75;;;;;;;24.08;43.25;98906.53;5034129;28;20499;-38
2022/08/29 05:42:03;;;;;;;24.15;14.43;;;;;;;23.91;43.48;98864.13;5040583;28;20054;-38
2022/08/29 05:44:31;;;;;;;19.70;13.15;;;;;;;24.04;43.46;98888.41;5036849;28;20052;-38
2022/08/29 05:46:58;;;;;;;23.98;13.57;;;;;;;24.03;43.57;98903.53;5033464;28;20048;-40
2022/08/29 05:49:24;;;;;;;21.52;13.30;;;;;;;23.99;43.54;98883.59;5039221;28;20191;-39
2022/08/29 05:51:55;;;;;;;27.10;13.32;;;;;;;24.05;43.72;98888.28;5014721;28;20529;-39
2022/08/29 05:54:21;;;;;;;22.67;12.98;;;;;;;24.17;43.46;98890.66;5032877;28;20052;-40
2022/08/29 05:56:47;;;;;;;28.30;15.75;;;;;;;24.23;43.33;98893.56;5032515;28;20545;-40
2022/08/29 05:59:17;;;;;;;36.53;16.63;;;;;;;24.26;43.32;98906.50;5032278;28;20079;-39
2022/08/29 06:01:44;;;;;;;36.08;17.70;;;;;;;24.30;43.43;98899.06;5027816;28;20056;-39
2022/08/29 06:04:10;;;;;;;31.52;15.20;;;;;;;24.35;43.31;98891.44;5037617;28;20044;-38
2022/08/29 06:06:36;;;;;;;34.13;17.00;;;;;;;24.37;43.54;98892.13;5040560;28;20056;-38
2022/08/29 06:09:02;;;;;;;33.33;18.50;;;;;;;24.39;43.63;98884.84;5012395;28;20053;-45
2022/08/29 06:11:30;;;;;;;28.42;15.82;;;;;;;24.58;43.18;98897.03;4980156;28;20497;-37
2022/08/29 06:13:58;;;;;;;29.00;17.42;;;;;;;24.58;42.52;98862.47;5031275;28;20061;-38
2022/08/29 06:16:25;;;;;;;34.13;17.35;;;;;;;25.00;41.88;98895.19;5031473;28;20541;-39
2022/08/29 06:18:50;;;;;;;33.25;20.83;;;;;;;25.30;40.84;98859.97;5032479;28;20038;-39
2022/08/29 06:21:17;;;;;;;31.15;18.52;;;;;;;25.73;40.11;98885.44;5030984;28;20087;-39
2022/08/29 06:23:44;;;;;;;33.75;18.58;;;;;;;25.92;39.63;98897.53;5036380;28;20052;-39
2022/08/29 06:26:10;;;;;;;33.63;20.00;;;;;;;26.03;39.02;98893.69;5042849;28;20037;-39
2022/08/29 06:28:37;;;;;;;37.38;19.10;;;;;;;25.88;38.83;98900.72;5031741;28;20065;-39
2022/08/29 06:31:13;;;;;;;33.13;19.08;;;;;;;25.78;38.62;98879.59;5029244;28;20603;-39
2022/08/29 06:33:38;;;;;;;38.58;21.02;;;;;;;26.07;38.10;98890.50;5027108;28;20115;-39
2022/08/29 06:36:06;;;;;;;34.00;20.45;;;;;;;26.34;37.91;98880.47;5031006;28;20041;-38
2022/08/29 06:38:32;;;;;;;38.15;23.55;;;;;;;26.64;37.56;98884.19;5030660;28;20037;-38
2022/08/29 06:41:03;;;;;;;44.83;22.10;;;;;;;26.80;37.41;98873.41;5045210;28;20033;-38
2022/08/29 06:43:28;;;;;;;40.30;19.40;;;;;;;26.87;37.36;98861.09;5032217;28;20045;-37
2022/08/29 06:45:54;;;;;;;34.47;19.42;;;;;;;27.17;36.88;98875.38;5012571;28;20037;-38
2022/08/29 06:48:20;;;;;;;41.70;23.50;;;;;;;27.44;36.61;98879.34;5031157;28;20048;-38
2022/08/29 06:50:46;;;;;;;45.50;25.20;;;;;;;28.00;35.38;98886.06;5032695;28;20572;-38
2022/08/29 06:53:12;;;;;;;45.15;25.92;;;;;;;28.63;34.59;98864.09;5031335;28;20083;-38
2022/08/29 06:55:38;;;;;;;46.17;23.10;;;;;;;29.63;33.12;98885.53;5030866;28;20136;-38
2022/08/29 06:58:04;;;;;;;35.17;21.23;;;;;;;30.46;32.10;98890.88;5027245;28;20456;-43
2022/08/29 07:00:30;;;;;;;35.05;21.02;;;;;;;30.82;30.69;98885.28;5030839;28;20052;-48
2022/08/29 07:02:56;;;;;;;36.75;20.25;;;;;;;29.91;30.93;98866.81;5020737;28;20048;-48
2022/08/29 07:05:22;;;;;;;35.58;20.58;;;;;;;29.13;32.01;98881.16;5048588;28;20102;-44
2022/08/29 07:07:50;;;;;;;50.15;26.80;;;;;;;28.87;32.62;98885.19;5031439;28;20476;-45
2022/08/29 07:10:17;;;;;;;38.20;20.10;;;;;;;28.56;32.48;98882.75;5027706;28;20135;-45
2022/08/29 07:12:43;;;;;;;39.92;21.83;;;;;;;28.45;32.54;98877.88;5028446;28;20048;-46
2022/08/29 07:15:08;;;;;;;34.95;20.33;;;;;;;28.68;32.54;98872.41;5027728;28;20041;-44
2022/08/29 07:17:34;;;;;;;40.50;19.88;;;;;;;29.32;31.92;98880.53;5028263;28;20048;-45
2022/08/29 07:20:00;;;;;;;35.15;20.40;;;;;;;30.20;30.88;98880.81;5025837;28;20048;-44
2022/08/29 07:22:26;;;;;;;32.88;24.17;;;;;;;30.84;29.75;98877.84;5035923;28;20133;-46
2022/08/29 07:24:54;;;;;;;35.80;19.50;;;;;;;30.67;29.77;98868.50;5028346;28;20095;-44
2022/08/29 07:27:20;;;;;;;;;;;;;;;30.31;28.82;98882.13;5028484;28;20083;-46
2022/08/29 07:29:46;;;;;;;33.67;18.67;;;;;;;29.91;29.02;98885.59;5030644;28;19917;-43
2022/08/29 07:32:12;;;;;;;32.00;18.75;;;;;;;30.02;29.13;98853.72;5028879;28;20049;-43
2022/08/29 07:34:38;;;;;;;34.63;20.80;;;;;;;29.77;29.24;98882.78;5029056;28;20038;-57
2022/08/29 07:37:04;;;;;;;36.30;19.98;;;;;;;29.26;30.38;98878.59;5028465;28;20098;-57
2022/08/29 07:39:30;;;;;;;39.22;21.00;;;;;;;29.31;30.37;98874.34;5029227;28;20067;-54
2022/08/29 07:41:57;;;;;;;31.42;20.58;;;;;;;29.39;30.26;98854.66;5028533;28;20068;-47
2022/08/29 07:44:24;;;;;;;34.70;20.13;;;;;;;30.42;29.34;98878.06;5027260;28;20106;-46
2022/08/29 07:46:55;;;;;;;36.47;21.05;;;;;;;31.27;28.38;98869.50;5027938;28;20132;-47
2022/08/29 07:49:21;;;;;;;38.35;21.63;;;;;;;32.46;27.01;98868.38;5029741;28;20049;-48
2022/08/29 07:51:47;;;;;;;35.90;21.65;;;;;;;33.63;25.54;98868.75;5028836;28;20456;-45
2022/08/29 07:54:17;;;;;;;39.88;21.48;;;;;;;34.32;24.67;98875.81;5030303;28;20040;-45
2022/08/29 07:56:44;;;;;;;35.00;21.92;;;;;;;34.89;24.29;98862.88;5028167;28;20119;-47
2022/08/29 07:59:10;;;;;;;38.42;20.75;;;;;;;35.33;22.98;98850.00;5029256;28;20048;-45
2022/08/29 08:01:36;;;;;;;35.25;21.48;;;;;;;35.60;22.69;98859.28;5026266;28;20635;-46
2022/08/29 08:04:03;;;;;;;31.85;21.23;;;;;;;36.07;22.31;98860.97;5027999;28;20048;-49
2022/08/29 08:06:29;;;;;;;39.60;19.38;;;;;;;36.67;21.52;98867.97;5027659;28;20037;-46
2022/08/29 08:08:55;;;;;;;33.83;20.60;;;;;;;36.03;21.76;98862.50;5026487;28;20087;-45
2022/08/29 08:11:22;;;;;;;37.13;21.83;;;;;;;36.76;21.24;98842.97;5026764;28;20505;-48
2022/08/29 08:13:48;;;;;;;34.58;22.13;;;;;;;37.61;20.85;98870.00;5026703;28;20041;-46
2022/08/29 08:16:16;;;;;;;39.28;22.35;;;;;;;37.48;20.92;98866.75;5027737;28;20041;-47
2022/08/29 08:18:43;;;;;;;41.92;21.67;;;;;;;37.93;20.58;98875.66;5027917;28;20091;-45
2022/08/29 08:21:09;;;;;;;37.47;22.00;;;;;;;37.70;20.64;98867.69;5028384;28;20067;-45
2022/08/29 08:23:35;;;;;;;34.33;20.90;;;;;;;36.69;21.17;98857.72;5028555;28;20432;-50
2022/08/29 08:26:01;;;;;;;32.58;17.35;;;;;;;35.77;21.94;98867.56;5028965;28;20128;-51
2022/08/29 08:28:29;;;;;;;28.23;15.38;;;;;;;34.38;23.11;98863.28;5029030;28;20066;-48
2022/08/29 08:30:55;;;;;;;28.02;14.57;;;;;;;33.90;23.45;98869.38;5028012;28;20513;-48
2022/08/29 08:33:22;;;;;;;26.83;14.20;;;;;;;33.77;23.85;98857.88;5029080;28;20041;-50
2022/08/29 08:35:48;;;;;;;29.35;13.45;;;;;;;34.61;23.21;98855.31;5029337;28;20063;-49
2022/08/29 08:38:15;;;;;;;25.42;13.50;;;;;;;34.96;22.84;98865.47;5028980;28;20048;-46
2022/08/29 08:40:46;;;;;;;31.42;12.65;;;;;;;35.61;22.15;98859.06;5027439;28;20120;-45
2022/08/29 08:43:14;;;;;;;17.27;10.43;;;;;;;36.04;21.63;98864.16;5026565;28;20136;-49
2022/08/29 08:45:41;;;;;;;25.70;10.65;;;;;;;34.96;22.74;98855.50;5027878;28;20037;-49
2022/08/29 08:48:20;;;;;;;23.58;10.88;;;;;;;34.68;23.23;98839.88;5026482;28;20037;-48
2022/08/29 08:51:06;;;;;;;22.08;11.23;;;;;;;34.78;23.27;98869.03;5028358;28;20045;-44
2022/08/29 08:53:38;;;;;;;19.50;10.38;;;;;;;35.28;23.12;98850.66;5044227;28;20048;-47
2022/08/29 08:56:10;;;;;;;17.05;9.57;;;;;;;35.94;22.73;98853.13;5030256;28;20052;-46
2022/08/29 08:59:21;;;;;;;16.23;9.52;;;;;;;36.75;21.62;98848.63;5032263;28;20038;-46
2022/08/29 09:02:28;;;;;;;16.60;7.90;;;;;;;38.37;20.53;98848.56;5032440;28;20068;-51
2022/08/29 09:05:18;;;;;;;20.50;6.65;;;;;;;39.00;19.79;98861.56;5031744;28;20080;-46
2022/08/29 09:08:18;;;;;;;17.88;5.90;;;;;;;37.02;21.31;98863.22;5032249;28;20037;-46
2022/08/29 09:11:04;;;;;;;16.65;5.60;;;;;;;35.37;22.93;98860.09;5031534;28;20075;-46
2022/08/29 09:13:52;;;;;;;14.35;5.47;;;;;;;35.49;23.07;98854.69;5031423;28;20045;-47
2022/08/29 09:16:38;;;;;;;;;;;;;;;36.28;22.49;98856.03;5031191;28;20618;-50
2022/08/29 09:19:08;;;;;;;30.67;11.48;;;;;;;37.09;21.93;98846.84;4998260;28;19924;-49
2022/08/29 09:21:46;;;;;;;23.02;5.93;;;;;;;38.21;20.81;98854.91;5033020;28;20044;-47
2022/08/29 09:24:38;;;;;;;16.73;4.97;;;;;;;37.90;21.09;98846.28;5031830;28;20096;-45
2022/08/29 09:27:05;;;;;;;16.83;4.88;;;;;;;36.13;22.66;98859.19;5028583;28;20053;-45
2022/08/29 09:29:31;;;;;;;14.40;4.65;;;;;;;35.47;23.71;98832.50;5031681;28;20041;-49
2022/08/29 09:32:09;;;;;;;18.13;4.50;;;;;;;35.76;23.70;98855.94;5029274;28;20053;-46
2022/08/29 09:34:38;;;;;;;10.57;4.10;;;;;;;35.37;23.80;98861.97;5032908;28;20112;-48
2022/08/29 09:37:20;;;;;;;35.08;20.67;;;;;;;35.25;24.30;98857.38;5032290;28;20087;-51
2022/08/29 09:39:58;;;;;;;19.10;4.03;;;;;;;35.13;24.32;98853.78;5031178;28;20046;-46
2022/08/29 09:42:29;;;;;;;18.02;4.10;;;;;;;34.25;25.82;98852.63;5013493;28;20037;-50
2022/08/29 09:44:58;;;;;;;17.15;4.53;;;;;;;33.58;26.55;98848.91;5028097;28;20056;-48
2022/08/29 09:47:23;;;;;;;;;;;;;;;32.58;27.80;98863.97;5031006;28;20624;-46
2022/08/29 09:50:12;;;;;;;15.82;4.20;;;;;;;31.62;29.36;98860.22;5032148;28;20049;-49
2022/08/29 09:52:40;;;;;;;18.23;3.60;;;;;;;30.89;30.04;98883.44;5011271;28;20052;-47
2022/08/29 09:55:41;;;;;;;24.10;4.60;;;;;;;30.49;30.68;98884.31;5026690;28;20114;-48
2022/08/29 09:58:29;;;;;;;16.08;3.72;;;;;;;30.79;29.90;98885.66;5028486;28;20141;-49
2022/08/29 10:01:01;;;;;;;11.98;3.65;;;;;;;31.68;28.21;98893.53;5046329;28;20033;-46
2022/08/29 10:03:31;;;;;;;18.42;4.25;;;;;;;32.23;27.99;98874.25;5031853;28;20056;-50
2022/08/29 10:06:14;;;;;;;21.02;3.92;;;;;;;33.36;26.78;98902.34;5029574;28;20033;-47
2022/08/29 10:08:42;;;;;;;12.63;4.10;;;;;;;33.95;25.92;98893.81;5012861;28;20056;-45
2022/08/29 10:11:21;;;;;;;11.15;4.25;;;;;;;34.52;25.47;98863.94;5030731;28;20049;-50
2022/08/29 10:13:52;;;;;;;16.52;4.22;;;;;;;35.84;23.82;98858.28;5046391;28;20056;-52
2022/08/29 10:16:32;;;;;;;14.10;4.85;;;;;;;37.48;22.62;98864.88;5032278;28;20075;-48
2022/08/29 10:18:58;;;;;;;12.45;4.32;;;;;;;38.17;21.69;98868.97;5030946;28;20041;-47
2022/08/29 10:21:32;;;;;;;15.90;3.63;;;;;;;36.88;22.55;98864.59;5029860;28;20045;-47
2022/08/29 10:24:04;;;;;;;16.10;4.28;;;;;;;35.64;24.38;98863.19;5031639;28;20046;-48
2022/08/29 10:27:00;;;;;;;12.05;4.15;;;;;;;36.05;23.52;98871.22;5032073;28;20040;-46
2022/08/29 10:29:38;;;;;;;18.83;4.90;;;;;;;37.06;22.53;98858.97;5032191;28;20061;-49
2022/08/29 10:32:51;;;;;;;23.42;4.93;;;;;;;37.57;21.98;98857.19;5030631;28;20139;-48
2022/08/29 10:35:35;;;;;;;18.48;4.68;;;;;;;37.40;21.89;98859.88;5009943;28;20137;-46
2022/08/29 10:38:29;;;;;;;12.00;4.13;;;;;;;38.03;21.48;98869.59;5011839;28;20103;-48
2022/08/29 10:41:03;;;;;;;17.95;4.40;;;;;;;38.05;21.53;98859.31;5027236;28;20173;-49
2022/08/29 10:43:39;;;;;;;17.52;4.80;;;;;;;38.50;20.77;98875.41;5016751;28;20140;-48
2022/08/29 10:46:12;;;;;;;13.50;4.68;;;;;;;39.02;20.60;98902.94;5013987;28;20130;-46
2022/08/29 10:49:05;;;;;;;17.90;4.32;;;;;;;38.35;20.52;98867.03;5007702;28;20049;-46
2022/08/29 10:51:38;;;;;;;16.88;4.50;;;;;;;38.07;20.16;98870.72;5007763;28;20465;-50
2022/08/29 10:54:45;;;;;;;13.13;4.75;;;;;;;37.23;21.09;98900.50;4995655;28;20042;-48
2022/08/29 10:57:11;;;;;;;;;;;;;;;36.83;21.74;98875.34;4999828;28;20519;-49
2022/08/29 10:59:57;;;;;;;31.25;5.35;;;;;;;37.26;21.13;98875.63;5026806;28;19967;-52
2022/08/29 11:02:34;;;;;;;15.98;4.63;;;;;;;37.27;21.10;98871.84;5026840;28;20034;-51
2022/08/29 11:05:04;;;;;;;21.73;4.63;;;;;;;34.98;24.15;98888.50;5027790;28;20513;-45
2022/08/29 11:07:35;;;;;;;21.10;5.38;;;;;;;34.14;24.98;98870.38;5029847;28;20469;-46
2022/08/29 11:10:19;;;;;;;14.00;5.75;;;;;;;36.05;23.62;98871.22;5029822;28;20063;-50
2022/08/29 11:13:25;;;;;;;24.95;5.18;;;;;;;36.41;22.42;98875.56;5029651;28;20045;-48
2022/08/29 11:16:12;;;;;;;13.40;4.90;;;;;;;35.99;23.34;98865.94;4987944;28;20042;-47
2022/08/29 11:18:45;;;;;;;15.98;5.28;;;;;;;36.15;23.14;98880.66;4984944;28;20051;-46
2022/08/29 11:21:34;;;;;;;15.27;4.57;;;;;;;36.36;23.46;98883.56;4969608;28;20038;-46
2022/08/29 11:24:02;;;;;;;20.90;4.43;;;;;;;36.06;23.52;98882.88;4979766;28;20538;-47
2022/08/29 11:26:33;;;;;;;;;;;;;;;36.25;23.39;98881.72;4989506;28;20094;-49
2022/08/29 11:29:25;;;;;;;14.25;4.68;;;;;;;35.01;25.07;98877.25;4988930;28;19921;-46
2022/08/29 11:32:16;;;;;;;20.98;4.90;;;;;;;34.25;26.09;98882.31;4989267;28;20176;-46
2022/08/29 11:35:11;;;;;;;19.55;4.35;;;;;;;33.35;27.74;98881.00;4974795;28;20093;-46
2022/08/29 11:37:52;;;;;;;9.77;4.07;;;;;;;33.16;28.33;98896.25;4969754;28;20042;-47